Terminal Aerodrome Forecast
Issued by NWS Cleveland, OH

Home | Current Version | Previous Version | Graphics & Text | Print | Product List | Glossary On
Versions: 1 2 3 4 5 6 7 8 9 10 11 12 13 14 15 16 17 18 19 20 21 22 23
000
FTUS41 KCLE 211100
TAFYNG
TAF
KYNG 211140Z 2112/2212 25008KT 6SM -SHSN SCT015 OVC045
      TEMPO 2112/2114 3SM -SHSN BKN022
     FM212200 22005KT P6SM SCT040
     FM220200 18006KT P6SM BKN250=

USA.gov is the U.S. government's official web portal to all federal, state and local government web resources and services.